createdAt,value
2023-01-26T00:01:23.541Z,6.10
2023-01-26T00:03:50.821Z,6.10
2023-01-26T00:06:20.152Z,6.10
2023-01-26T00:08:49.558Z,6.10
2023-01-26T00:11:19.334Z,6.00
2023-01-26T00:13:49.528Z,6.10
2023-01-26T00:16:16.396Z,6.10
2023-01-26T00:18:44.062Z,6.10
2023-01-26T00:21:16.518Z,6.10
2023-01-26T00:23:43.458Z,6.10
2023-01-26T00:26:13.935Z,6.10
2023-01-26T00:28:41.031Z,6.20
2023-01-26T00:31:11.614Z,6.20
2023-01-26T00:33:38.275Z,6.10
2023-01-26T00:36:05.466Z,6.10
2023-01-26T00:38:32.417Z,7.50
2023-01-26T00:40:59.205Z,6.10
2023-01-26T00:43:26.059Z,6.20
2023-01-26T00:45:52.775Z,6.10
2023-01-26T00:48:19.558Z,6.00
2023-01-26T00:50:46.225Z,6.60
2023-01-26T00:53:13.059Z,6.00
2023-01-26T00:55:39.794Z,6.00
2023-01-26T00:58:08.508Z,6.00
2023-01-26T01:00:37.410Z,5.90
2023-01-26T01:03:05.453Z,6.00
2023-01-26T01:05:34.008Z,6.00
2023-01-26T01:08:00.742Z,5.90
2023-01-26T01:10:28.462Z,6.00
2023-01-26T01:12:56.552Z,6.00
2023-01-26T01:15:24.042Z,5.90
2023-01-26T01:17:50.870Z,5.90
2023-01-26T01:20:17.805Z,6.90
2023-01-26T01:22:44.496Z,6.00
2023-01-26T01:25:11.280Z,6.00
2023-01-26T01:27:38.234Z,6.00
2023-01-26T01:30:08.157Z,6.00
2023-01-26T01:32:39.948Z,6.00
2023-01-26T01:35:07.752Z,7.70
2023-01-26T01:37:34.608Z,6.00
2023-01-26T01:40:01.449Z,5.90
2023-01-26T01:42:28.426Z,5.90
2023-01-26T01:45:26.238Z,5.90
2023-01-26T01:48:04.134Z,5.90
2023-01-26T01:50:35.993Z,5.90
2023-01-26T01:53:02.994Z,5.90
2023-01-26T01:55:29.949Z,5.90
2023-01-26T01:58:01.622Z,6.00
2023-01-26T02:00:28.732Z,5.90
2023-01-26T02:03:19.355Z,5.90
2023-01-26T02:06:14.900Z,5.90
2023-01-26T02:08:49.387Z,6.00
2023-01-26T02:11:33.828Z,5.90
2023-01-26T02:14:04.795Z,5.90
2023-01-26T02:16:31.594Z,5.90
2023-01-26T02:18:59.031Z,5.90
2023-01-26T02:21:26.086Z,5.90
2023-01-26T02:23:55.770Z,5.90
2023-01-26T02:26:28.950Z,5.90
2023-01-26T02:28:56.556Z,6.00
2023-01-26T02:31:24.130Z,6.00
2023-01-26T02:33:51.006Z,5.90
2023-01-26T02:36:24.510Z,5.90
2023-01-26T02:39:15.335Z,5.90
2023-01-26T02:42:00.887Z,5.90
2023-01-26T02:44:28.941Z,5.90
2023-01-26T02:46:56.262Z,5.80
2023-01-26T02:49:41.389Z,5.80
2023-01-26T02:52:08.449Z,5.90
2023-01-26T02:54:53.826Z,5.70
2023-01-26T02:57:20.493Z,5.80
2023-01-26T02:59:47.200Z,5.80
2023-01-26T03:02:14.240Z,5.90
2023-01-26T03:04:41.968Z,6.00
2023-01-26T03:07:08.800Z,5.90
2023-01-26T03:09:35.622Z,5.80
2023-01-26T03:12:02.933Z,5.80
2023-01-26T03:14:29.699Z,5.70
2023-01-26T03:16:56.513Z,5.80
2023-01-26T03:19:41.943Z,5.70
2023-01-26T03:22:29.281Z,5.60
2023-01-26T03:25:14.715Z,5.70
2023-01-26T03:27:44.716Z,5.70
2023-01-26T03:30:13.277Z,5.70
2023-01-26T03:32:40.878Z,5.60
2023-01-26T03:35:10.158Z,5.60
2023-01-26T03:37:37.020Z,5.60
2023-01-26T03:40:23.366Z,5.60
2023-01-26T03:43:09.304Z,5.70
2023-01-26T03:45:54.663Z,5.60
2023-01-26T03:48:40.012Z,5.60
2023-01-26T03:51:25.282Z,5.60
2023-01-26T03:54:10.729Z,5.50
2023-01-26T03:56:37.519Z,5.60
2023-01-26T03:59:10.057Z,5.60
2023-01-26T04:02:04.859Z,5.70
2023-01-26T04:04:50.383Z,5.60
2023-01-26T04:07:35.792Z,5.50
2023-01-26T04:10:02.459Z,5.60
2023-01-26T04:12:29.204Z,5.60
2023-01-26T04:15:14.383Z,5.50
2023-01-26T04:17:59.946Z,5.60
2023-01-26T04:20:45.247Z,5.70
2023-01-26T04:23:21.019Z,5.60
2023-01-26T04:25:48.913Z,5.60
2023-01-26T04:28:15.740Z,5.60
2023-01-26T04:30:42.720Z,5.60
2023-01-26T04:33:10.355Z,5.50
2023-01-26T04:35:37.098Z,5.50
2023-01-26T04:38:04.003Z,5.50
2023-01-26T04:40:30.751Z,5.60
2023-01-26T04:42:58.930Z,5.50
2023-01-26T04:45:25.850Z,5.60
2023-01-26T04:47:52.515Z,5.60
2023-01-26T04:50:19.268Z,5.60
2023-01-26T04:52:46.108Z,5.50
2023-01-26T04:55:12.846Z,5.50
2023-01-26T04:57:39.605Z,5.50
2023-01-26T05:00:07.111Z,5.50
2023-01-26T05:02:33.925Z,5.50
2023-01-26T05:05:00.614Z,5.60
2023-01-26T05:07:27.365Z,5.60
2023-01-26T05:09:55.726Z,5.70
2023-01-26T05:12:34.781Z,5.70
2023-01-26T05:15:01.510Z,3.90
2023-01-26T05:17:28.241Z,5.60
2023-01-26T05:19:55.020Z,5.70
2023-01-26T05:22:22.950Z,5.70
2023-01-26T05:24:50.740Z,5.60
2023-01-26T05:27:23.931Z,5.70
2023-01-26T05:29:52.615Z,5.60
2023-01-26T05:32:19.803Z,5.60
2023-01-26T05:34:46.622Z,5.50
2023-01-26T05:37:14.950Z,5.50
2023-01-26T05:39:42.388Z,5.60
2023-01-26T05:42:10.542Z,5.60
2023-01-26T05:44:37.323Z,7.00
2023-01-26T05:47:04.488Z,5.60
2023-01-26T05:49:31.370Z,5.60
2023-01-26T05:51:58.339Z,5.60
2023-01-26T05:54:25.629Z,5.70
2023-01-26T05:56:53.439Z,5.70
2023-01-26T05:59:20.188Z,5.70
2023-01-26T06:01:46.910Z,5.70
2023-01-26T06:04:13.799Z,5.70
2023-01-26T06:06:40.544Z,5.70
2023-01-26T06:09:07.269Z,5.70
2023-01-26T06:11:34.265Z,5.60
2023-01-26T06:14:01.035Z,5.60
2023-01-26T06:16:28.361Z,5.60
2023-01-26T06:18:55.242Z,5.70
2023-01-26T06:21:22.156Z,5.70
2023-01-26T06:23:48.939Z,5.70
2023-01-26T06:26:15.812Z,5.80
2023-01-26T06:28:42.507Z,5.80
2023-01-26T06:31:10.789Z,5.80
2023-01-26T06:33:38.773Z,5.80
2023-01-26T06:36:10.003Z,5.70
2023-01-26T06:38:37.487Z,5.80
2023-01-26T06:41:06.489Z,5.70
2023-01-26T06:43:36.930Z,5.80
2023-01-26T06:46:05.314Z,5.80
2023-01-26T06:48:34.522Z,5.90
2023-01-26T06:51:25.433Z,6.70
2023-01-26T06:53:53.893Z,5.90
2023-01-26T06:56:21.344Z,5.90
2023-01-26T06:58:48.162Z,6.00
2023-01-26T07:01:21.578Z,5.90
2023-01-26T07:03:49.667Z,5.80
2023-01-26T07:06:16.692Z,5.90
2023-01-26T07:08:43.484Z,5.90
2023-01-26T07:11:10.852Z,5.90
2023-01-26T07:13:37.582Z,5.60
2023-01-26T07:16:10.647Z,5.90
2023-01-26T07:18:37.932Z,5.90
2023-01-26T07:21:07.873Z,6.00
2023-01-26T07:23:35.162Z,6.70
2023-01-26T07:26:07.428Z,5.90
2023-01-26T07:28:34.802Z,5.90
2023-01-26T07:31:02.837Z,5.90
2023-01-26T07:33:30.440Z,5.90
2023-01-26T07:35:58.156Z,5.90
2023-01-26T07:38:26.526Z,5.90
2023-01-26T07:40:53.425Z,5.80
2023-01-26T07:43:20.169Z,5.90
2023-01-26T07:45:55.550Z,5.80
2023-01-26T07:48:24.711Z,5.80
2023-01-26T07:50:51.848Z,5.70
2023-01-26T07:53:19.492Z,5.60
2023-01-26T07:55:47.330Z,5.60
2023-01-26T07:58:14.382Z,5.60
2023-01-26T08:00:41.466Z,5.50
2023-01-26T08:03:08.459Z,5.50
2023-01-26T08:05:37.164Z,5.50
2023-01-26T08:08:04.370Z,5.60
2023-01-26T08:10:32.061Z,5.70
2023-01-26T08:13:02.039Z,5.70
2023-01-26T08:15:29.596Z,5.70
2023-01-26T08:17:56.470Z,5.70
2023-01-26T08:20:23.767Z,5.70
2023-01-26T08:22:50.692Z,5.70
2023-01-26T08:25:17.397Z,5.70
2023-01-26T08:27:44.171Z,5.60
2023-01-26T08:30:12.744Z,6.50
2023-01-26T08:32:40.311Z,5.60
2023-01-26T08:35:07.502Z,5.70
2023-01-26T08:37:34.429Z,5.70
2023-01-26T08:40:01.566Z,5.60
2023-01-26T08:42:28.936Z,5.70
2023-01-26T08:44:55.626Z,5.70
2023-01-26T08:47:22.339Z,5.60
2023-01-26T08:49:49.037Z,6.50
2023-01-26T08:52:16.623Z,5.60
2023-01-26T08:54:43.364Z,5.70
2023-01-26T08:57:10.102Z,5.70
2023-01-26T08:59:36.807Z,5.70
2023-01-26T09:02:03.601Z,5.70
2023-01-26T09:04:30.441Z,5.70
2023-01-26T09:06:57.209Z,5.70
2023-01-26T09:09:24.020Z,5.70
2023-01-26T09:11:50.684Z,5.70
2023-01-26T09:14:18.817Z,5.70
2023-01-26T09:16:45.596Z,5.60
2023-01-26T09:19:12.409Z,5.60
2023-01-26T09:21:39.099Z,5.70
2023-01-26T09:24:06.300Z,5.70
2023-01-26T09:26:33.059Z,5.60
2023-01-26T09:28:59.879Z,5.60
2023-01-26T09:31:27.065Z,5.60
2023-01-26T09:33:54.429Z,5.60
2023-01-26T09:36:21.313Z,5.70
2023-01-26T09:38:48.245Z,5.80
2023-01-26T09:41:15.252Z,5.90
2023-01-26T09:43:51.040Z,5.90
2023-01-26T09:46:24.037Z,5.80
2023-01-26T09:49:03.767Z,5.80
2023-01-26T09:51:52.931Z,5.80
2023-01-26T09:54:30.978Z,5.80
2023-01-26T09:57:02.040Z,5.80
2023-01-26T09:59:53.937Z,5.70
2023-01-26T10:02:48.163Z,5.90
2023-01-26T10:05:37.940Z,5.90
2023-01-26T10:08:13.050Z,5.90
2023-01-26T10:10:46.217Z,5.90
2023-01-26T10:13:14.461Z,5.90
2023-01-26T10:15:43.479Z,6.10
2023-01-26T10:18:18.724Z,6.10
2023-01-26T10:20:54.902Z,6.20
2023-01-26T10:23:25.732Z,6.20
2023-01-26T10:25:57.067Z,6.20
2023-01-26T10:28:29.969Z,6.20
2023-01-26T10:30:57.821Z,6.10
2023-01-26T10:33:35.623Z,6.10
2023-01-26T10:36:04.620Z,6.10
2023-01-26T10:38:34.077Z,6.10
2023-01-26T10:41:18.703Z,6.10
2023-01-26T10:44:01.276Z,6.10
2023-01-26T10:46:38.676Z,6.10
2023-01-26T10:49:08.518Z,6.20
2023-01-26T10:52:04.724Z,6.10
2023-01-26T10:54:33.676Z,6.20
2023-01-26T10:57:28.148Z,6.10
2023-01-26T11:00:00.977Z,6.10
2023-01-26T11:02:30.228Z,6.00
2023-01-26T11:05:05.290Z,6.00
2023-01-26T11:07:39.328Z,5.90
2023-01-26T11:10:38.423Z,5.90
2023-01-26T11:13:21.830Z,5.90
2023-01-26T11:16:10.728Z,6.00
2023-01-26T11:18:49.285Z,6.00
2023-01-26T11:21:39.433Z,6.00
2023-01-26T11:24:24.713Z,5.90
2023-01-26T11:26:54.342Z,6.00
2023-01-26T11:29:38.129Z,6.10
2023-01-26T11:32:23.407Z,6.20
2023-01-26T11:34:56.407Z,6.20
2023-01-26T11:37:41.270Z,6.10
2023-01-26T11:40:39.479Z,6.10
2023-01-26T11:43:08.433Z,6.00
2023-01-26T11:46:01.056Z,6.00
2023-01-26T11:48:40.191Z,6.00
2023-01-26T11:51:23.485Z,5.90
2023-01-26T11:53:59.353Z,5.80
2023-01-26T11:56:41.162Z,5.70
2023-01-26T11:59:38.383Z,5.70
2023-01-26T12:02:27.120Z,5.80
2023-01-26T12:04:55.822Z,5.90
2023-01-26T12:07:33.350Z,6.10
2023-01-26T12:10:05.181Z,6.10
2023-01-26T12:12:46.533Z,6.10
2023-01-26T12:15:21.774Z,6.00
2023-01-26T12:18:04.254Z,6.00
2023-01-26T12:20:45.547Z,6.00
2023-01-26T12:23:25.825Z,6.00
2023-01-26T12:26:10.724Z,6.00
2023-01-26T12:28:44.664Z,5.90
2023-01-26T12:31:21.008Z,5.90
2023-01-26T12:33:51.785Z,6.00
2023-01-26T12:36:37.126Z,5.90
2023-01-26T12:39:22.147Z,5.90
2023-01-26T12:42:26.484Z,5.90
2023-01-26T12:45:02.227Z,5.90
2023-01-26T12:47:48.401Z,5.90
2023-01-26T12:50:53.070Z,5.90
2023-01-26T12:53:32.334Z,5.90
2023-01-26T12:56:11.591Z,6.00
2023-01-26T12:58:45.526Z,6.00
2023-01-26T13:01:15.850Z,6.00
2023-01-26T13:03:56.472Z,6.00
2023-01-26T13:06:25.740Z,5.90
2023-01-26T13:09:17.258Z,5.90
2023-01-26T13:11:50.344Z,5.90
2023-01-26T13:14:37.963Z,5.80
2023-01-26T13:17:16.787Z,5.80
2023-01-26T13:19:43.577Z,5.80
2023-01-26T13:22:19.705Z,5.90
2023-01-26T13:24:48.881Z,5.90
2023-01-26T13:27:37.390Z,5.90
2023-01-26T13:30:24.314Z,5.80
2023-01-26T13:32:51.289Z,5.80
2023-01-26T13:35:23.323Z,5.90
2023-01-26T13:37:57.609Z,6.00
2023-01-26T13:40:31.083Z,6.00
2023-01-26T13:43:25.210Z,5.90
2023-01-26T13:45:59.812Z,5.90
2023-01-26T13:48:34.820Z,5.90
2023-01-26T13:51:03.272Z,5.90
2023-01-26T13:53:53.619Z,6.10
2023-01-26T13:56:33.017Z,6.00
2023-01-26T13:59:11.763Z,5.80
2023-01-26T14:01:43.815Z,5.80
2023-01-26T14:04:32.285Z,5.80
2023-01-26T14:07:06.485Z,5.80
2023-01-26T14:09:45.067Z,5.70
2023-01-26T14:12:25.379Z,5.80
2023-01-26T14:14:56.859Z,5.70
2023-01-26T14:17:34.417Z,6.00
2023-01-26T14:20:03.624Z,5.70
2023-01-26T14:22:30.907Z,5.70
2023-01-26T14:24:57.643Z,5.70
2023-01-26T14:27:41.956Z,5.70
2023-01-26T14:30:26.021Z,5.70
2023-01-26T14:33:04.499Z,5.70
2023-01-26T14:35:31.937Z,5.70
2023-01-26T14:38:19.103Z,5.80
2023-01-26T14:40:54.242Z,5.70
2023-01-26T14:43:21.554Z,5.70
2023-01-26T14:45:59.829Z,5.60
2023-01-26T14:48:51.871Z,5.60
2023-01-26T14:51:22.166Z,5.60
2023-01-26T14:53:58.612Z,5.70
2023-01-26T14:56:40.908Z,5.60
2023-01-26T14:59:18.323Z,5.60
2023-01-26T15:01:45.130Z,5.50
2023-01-26T15:04:40.453Z,5.60
2023-01-26T15:07:42.392Z,5.60
2023-01-26T15:10:53.962Z,5.60
2023-01-26T15:13:29.756Z,5.70
2023-01-26T15:16:14.505Z,5.70
2023-01-26T15:18:41.296Z,5.80
2023-01-26T15:21:16.111Z,5.90
2023-01-26T15:23:45.641Z,5.70
2023-01-26T15:26:30.977Z,5.80
2023-01-26T15:29:00.064Z,5.80
2023-01-26T15:31:38.938Z,5.70
2023-01-26T15:34:06.938Z,5.70
2023-01-26T15:36:52.112Z,5.70
2023-01-26T15:39:20.413Z,5.70
2023-01-26T15:42:16.579Z,5.60
2023-01-26T15:44:43.628Z,5.60
2023-01-26T15:47:12.159Z,5.60
2023-01-26T15:49:39.542Z,5.60
2023-01-26T15:52:17.472Z,5.60
2023-01-26T15:54:44.438Z,5.90
2023-01-26T15:57:14.274Z,5.60
2023-01-26T15:59:41.345Z,5.50
2023-01-26T16:02:19.706Z,6.80
2023-01-26T16:04:47.179Z,5.60
2023-01-26T16:07:17.350Z,5.60
2023-01-26T16:09:44.061Z,5.60
2023-01-26T16:12:25.882Z,5.70
2023-01-26T16:14:57.682Z,5.70
2023-01-26T16:17:24.415Z,5.80
2023-01-26T16:19:51.642Z,5.70
2023-01-26T16:22:18.979Z,5.70
2023-01-26T16:24:47.138Z,5.70
2023-01-26T16:27:13.833Z,5.60
2023-01-26T16:29:40.801Z,5.60
2023-01-26T16:32:28.391Z,5.60
2023-01-26T16:34:55.274Z,5.60
2023-01-26T16:37:22.110Z,5.50
2023-01-26T16:39:48.866Z,5.50
2023-01-26T16:42:19.784Z,5.50
2023-01-26T16:44:46.969Z,5.50
2023-01-26T16:47:13.723Z,5.50
2023-01-26T16:49:40.549Z,5.50
2023-01-26T16:52:08.609Z,5.50
2023-01-26T16:54:35.296Z,5.50
2023-01-26T16:57:02.227Z,5.40
2023-01-26T16:59:29.058Z,5.50
2023-01-26T17:01:56.002Z,5.50
2023-01-26T17:04:22.729Z,5.50
2023-01-26T17:06:49.542Z,5.40
2023-01-26T17:09:21.016Z,5.40
2023-01-26T17:11:47.696Z,5.40
2023-01-26T17:14:14.536Z,5.40
2023-01-26T17:16:41.337Z,5.50
2023-01-26T17:19:09.349Z,5.40
2023-01-26T17:21:36.619Z,5.40
2023-01-26T17:24:03.871Z,5.50
2023-01-26T17:26:30.661Z,5.40
2023-01-26T17:28:57.382Z,5.30
2023-01-26T17:31:25.300Z,5.30
2023-01-26T17:33:52.188Z,5.30
2023-01-26T17:36:19.620Z,5.40
2023-01-26T17:38:47.985Z,5.40
2023-01-26T17:41:15.158Z,5.40
2023-01-26T17:43:41.955Z,5.40
2023-01-26T17:46:11.976Z,5.40
2023-01-26T17:48:39.038Z,5.40
2023-01-26T17:51:07.834Z,5.40
2023-01-26T17:53:38.338Z,5.40
2023-01-26T17:56:07.601Z,5.40
2023-01-26T17:58:35.480Z,5.40
2023-01-26T18:01:02.562Z,5.40
2023-01-26T18:03:29.430Z,5.50
2023-01-26T18:05:57.351Z,5.50
2023-01-26T18:08:25.054Z,5.50
2023-01-26T18:11:01.434Z,5.50
2023-01-26T18:13:29.446Z,5.40
2023-01-26T18:15:56.191Z,5.40
2023-01-26T18:18:27.110Z,5.40
2023-01-26T18:20:54.137Z,5.40
2023-01-26T18:23:25.128Z,5.40
2023-01-26T18:25:51.870Z,5.30
2023-01-26T18:28:18.742Z,5.40
2023-01-26T18:30:45.598Z,5.40
2023-01-26T18:33:12.438Z,5.30
2023-01-26T18:35:40.543Z,5.30
2023-01-26T18:38:07.281Z,5.40
2023-01-26T18:40:34.079Z,5.40
2023-01-26T18:43:01.149Z,5.40
2023-01-26T18:45:27.876Z,5.40
2023-01-26T18:47:54.680Z,5.40
2023-01-26T18:50:21.409Z,5.40
2023-01-26T18:52:48.122Z,5.50
2023-01-26T18:55:15.104Z,5.50
2023-01-26T18:57:42.007Z,5.50
2023-01-26T19:00:09.491Z,5.50
2023-01-26T19:02:39.290Z,5.50
2023-01-26T19:05:07.469Z,5.50
2023-01-26T19:07:35.016Z,5.50
2023-01-26T19:10:02.076Z,5.40
2023-01-26T19:12:28.846Z,5.40
2023-01-26T19:14:55.683Z,5.40
2023-01-26T19:17:22.466Z,5.30
2023-01-26T19:19:49.193Z,5.40
2023-01-26T19:22:16.072Z,5.50
2023-01-26T19:24:43.048Z,5.50
2023-01-26T19:27:10.537Z,5.50
2023-01-26T19:29:37.290Z,5.50
2023-01-26T19:32:04.552Z,5.40
2023-01-26T19:34:32.178Z,5.40
2023-01-26T19:36:59.264Z,5.50
2023-01-26T19:39:26.020Z,5.30
2023-01-26T19:41:52.963Z,5.40
2023-01-26T19:44:19.827Z,5.30
2023-01-26T19:46:49.575Z,5.30
2023-01-26T19:49:17.494Z,5.30
2023-01-26T19:51:44.256Z,5.30
2023-01-26T19:54:11.059Z,5.40
2023-01-26T19:56:38.016Z,5.40
2023-01-26T19:59:07.909Z,5.40
2023-01-26T20:01:35.155Z,5.40
2023-01-26T20:04:05.070Z,5.40
2023-01-26T20:06:34.038Z,5.30
2023-01-26T20:09:03.423Z,5.30
2023-01-26T20:11:30.228Z,5.20
2023-01-26T20:14:02.375Z,5.30
2023-01-26T20:16:30.004Z,5.40
2023-01-26T20:18:59.038Z,5.40
2023-01-26T20:21:26.965Z,5.50
2023-01-26T20:23:55.614Z,5.50
2023-01-26T20:26:24.141Z,5.40
2023-01-26T20:28:51.825Z,6.70
2023-01-26T20:31:21.956Z,5.40
2023-01-26T20:33:49.941Z,5.40
2023-01-26T20:36:19.422Z,5.40
2023-01-26T20:38:48.293Z,5.50
2023-01-26T20:41:18.803Z,5.40
2023-01-26T20:43:58.660Z,5.40
2023-01-26T20:46:29.524Z,5.30
2023-01-26T20:48:57.325Z,5.30
2023-01-26T20:51:29.207Z,5.30
2023-01-26T20:53:57.468Z,5.70
2023-01-26T20:56:26.011Z,5.20
2023-01-26T20:58:54.202Z,5.20
2023-01-26T21:01:22.186Z,5.20
2023-01-26T21:03:49.384Z,5.30
2023-01-26T21:06:20.932Z,5.30
2023-01-26T21:08:54.045Z,5.20
2023-01-26T21:11:22.404Z,5.20
2023-01-26T21:13:49.357Z,5.30
2023-01-26T21:16:17.368Z,5.30
2023-01-26T21:18:45.984Z,5.20
2023-01-26T21:21:17.593Z,6.00
2023-01-26T21:23:45.542Z,5.20
2023-01-26T21:26:21.796Z,5.20
2023-01-26T21:28:54.313Z,5.20
2023-01-26T21:31:23.472Z,5.20
2023-01-26T21:33:50.397Z,5.30
2023-01-26T21:36:22.591Z,5.30
2023-01-26T21:38:51.780Z,5.30
2023-01-26T21:41:39.613Z,5.10
2023-01-26T21:44:18.261Z,6.20
2023-01-26T21:46:46.318Z,5.10
2023-01-26T21:49:14.255Z,5.10
2023-01-26T21:51:59.984Z,5.10
2023-01-26T21:54:29.568Z,5.10
2023-01-26T21:56:57.139Z,5.10
2023-01-26T21:59:23.976Z,5.20
2023-01-26T22:01:53.059Z,5.20
2023-01-26T22:04:24.161Z,5.20
2023-01-26T22:06:52.101Z,5.30
2023-01-26T22:09:19.052Z,5.30
2023-01-26T22:11:45.756Z,5.20
2023-01-26T22:14:16.383Z,5.20
2023-01-26T22:16:43.335Z,5.10
2023-01-26T22:19:11.164Z,5.00
2023-01-26T22:21:38.191Z,5.00
2023-01-26T22:24:05.615Z,5.00
2023-01-26T22:26:32.456Z,5.00
2023-01-26T22:28:59.579Z,5.10
2023-01-26T22:31:28.832Z,5.10
2023-01-26T22:33:57.607Z,5.20
2023-01-26T22:36:25.291Z,5.10
2023-01-26T22:38:52.827Z,5.00
2023-01-26T22:41:25.157Z,5.00
2023-01-26T22:43:54.338Z,5.00
2023-01-26T22:46:23.857Z,5.00
2023-01-26T22:48:51.327Z,5.10
2023-01-26T22:51:23.920Z,5.10
2023-01-26T22:53:52.958Z,5.10
2023-01-26T22:56:20.185Z,5.10
2023-01-26T22:59:00.299Z,5.00
2023-01-26T23:01:32.662Z,5.00
2023-01-26T23:04:00.921Z,5.00
2023-01-26T23:06:28.388Z,5.10
2023-01-26T23:08:55.583Z,5.10
2023-01-26T23:11:28.084Z,5.00
2023-01-26T23:13:56.320Z,5.10
2023-01-26T23:16:24.449Z,5.10
2023-01-26T23:18:52.945Z,5.10
2023-01-26T23:21:19.995Z,5.00
2023-01-26T23:23:46.920Z,5.00
2023-01-26T23:26:13.795Z,5.10
2023-01-26T23:28:42.385Z,5.10
2023-01-26T23:31:10.451Z,5.00
2023-01-26T23:33:38.448Z,5.00
2023-01-26T23:36:06.808Z,5.00
2023-01-26T23:38:33.613Z,5.00
2023-01-26T23:41:01.580Z,4.90
2023-01-26T23:43:28.493Z,4.90
2023-01-26T23:45:56.827Z,5.00
2023-01-26T23:48:24.328Z,5.10
2023-01-26T23:51:06.306Z,5.20
2023-01-26T23:53:33.478Z,5.30
2023-01-26T23:56:04.934Z,5.10
2023-01-26T23:58:31.767Z,5.20
